sensor_id;sensor_type;location;lat;lon;timestamp;P1;durP1;ratioP1;P2;durP2;ratioP2
24273;SDS011;12392;42.678;23.380;2022-11-20T00:02:25;9.40;;;4.38;;
24273;SDS011;12392;42.678;23.380;2022-11-20T00:04:51;8.85;;;4.45;;
24273;SDS011;12392;42.678;23.380;2022-11-20T00:07:17;9.75;;;4.50;;
24273;SDS011;12392;42.678;23.380;2022-11-20T00:09:42;6.03;;;4.53;;
24273;SDS011;12392;42.678;23.380;2022-11-20T00:12:08;6.65;;;4.22;;
24273;SDS011;12392;42.678;23.380;2022-11-20T00:14:34;7.18;;;4.50;;
24273;SDS011;12392;42.678;23.380;2022-11-20T00:16:59;4.82;;;3.65;;
24273;SDS011;12392;42.678;23.380;2022-11-20T00:19:25;9.00;;;4.25;;
24273;SDS011;12392;42.678;23.380;2022-11-20T00:21:51;7.13;;;4.45;;
24273;SDS011;12392;42.678;23.380;2022-11-20T00:24:18;7.53;;;4.32;;
24273;SDS011;12392;42.678;23.380;2022-11-20T00:26:44;7.80;;;4.40;;
24273;SDS011;12392;42.678;23.380;2022-11-20T00:29:10;6.05;;;4.15;;
24273;SDS011;12392;42.678;23.380;2022-11-20T00:31:37;11.55;;;4.32;;
24273;SDS011;12392;42.678;23.380;2022-11-20T00:34:02;8.48;;;4.40;;
24273;SDS011;12392;42.678;23.380;2022-11-20T00:36:28;6.00;;;3.95;;
24273;SDS011;12392;42.678;23.380;2022-11-20T00:38:57;8.32;;;4.25;;
24273;SDS011;12392;42.678;23.380;2022-11-20T00:41:24;8.15;;;3.78;;
24273;SDS011;12392;42.678;23.380;2022-11-20T00:43:52;7.75;;;4.15;;
24273;SDS011;12392;42.678;23.380;2022-11-20T00:46:20;9.75;;;4.40;;
24273;SDS011;12392;42.678;23.380;2022-11-20T00:48:47;6.07;;;3.90;;
24273;SDS011;12392;42.678;23.380;2022-11-20T00:51:13;4.50;;;2.00;;
24273;SDS011;12392;42.678;23.380;2022-11-20T00:53:40;6.00;;;2.90;;
24273;SDS011;12392;42.678;23.380;2022-11-20T00:56:09;4.18;;;1.85;;
24273;SDS011;12392;42.678;23.380;2022-11-20T00:58:37;6.00;;;2.95;;
24273;SDS011;12392;42.678;23.380;2022-11-20T01:01:05;4.18;;;2.70;;
24273;SDS011;12392;42.678;23.380;2022-11-20T01:03:36;5.70;;;2.50;;
24273;SDS011;12392;42.678;23.380;2022-11-20T01:06:22;4.13;;;1.80;;
24273;SDS011;12392;42.678;23.380;2022-11-20T01:08:50;2.35;;;1.75;;
24273;SDS011;12392;42.678;23.380;2022-11-20T01:11:18;6.28;;;1.95;;
24273;SDS011;12392;42.678;23.380;2022-11-20T01:13:47;5.03;;;2.30;;
24273;SDS011;12392;42.678;23.380;2022-11-20T01:16:15;2.55;;;1.90;;
24273;SDS011;12392;42.678;23.380;2022-11-20T01:18:44;4.30;;;2.40;;
24273;SDS011;12392;42.678;23.380;2022-11-20T01:21:12;4.90;;;2.08;;
24273;SDS011;12392;42.678;23.380;2022-11-20T01:23:40;3.17;;;1.98;;
24273;SDS011;12392;42.678;23.380;2022-11-20T01:26:09;3.40;;;2.78;;
24273;SDS011;12392;42.678;23.380;2022-11-20T01:28:36;4.95;;;2.20;;
24273;SDS011;12392;42.678;23.380;2022-11-20T01:31:10;3.08;;;2.03;;
24273;SDS011;12392;42.678;23.380;2022-11-20T01:33:48;2.90;;;1.90;;
24273;SDS011;12392;42.678;23.380;2022-11-20T01:36:15;5.47;;;1.77;;
24273;SDS011;12392;42.678;23.380;2022-11-20T01:38:41;4.18;;;1.55;;
24273;SDS011;12392;42.678;23.380;2022-11-20T01:41:07;2.63;;;1.38;;
24273;SDS011;12392;42.678;23.380;2022-11-20T01:43:34;4.97;;;2.00;;
24273;SDS011;12392;42.678;23.380;2022-11-20T01:48:39;4.35;;;1.83;;
24273;SDS011;12392;42.678;23.380;2022-11-20T01:51:07;5.70;;;2.30;;
24273;SDS011;12392;42.678;23.380;2022-11-20T01:53:38;3.42;;;1.60;;
24273;SDS011;12392;42.678;23.380;2022-11-20T01:56:05;4.63;;;2.30;;
24273;SDS011;12392;42.678;23.380;2022-11-20T01:58:35;4.75;;;1.38;;
24273;SDS011;12392;42.678;23.380;2022-11-20T02:01:02;3.42;;;1.50;;
24273;SDS011;12392;42.678;23.380;2022-11-20T02:03:29;1.65;;;0.80;;
24273;SDS011;12392;42.678;23.380;2022-11-20T02:06:06;3.13;;;1.20;;
24273;SDS011;12392;42.678;23.380;2022-11-20T02:08:53;1.60;;;0.70;;
24273;SDS011;12392;42.678;23.380;2022-11-20T02:11:20;1.00;;;0.88;;
24273;SDS011;12392;42.678;23.380;2022-11-20T02:13:46;1.95;;;0.93;;
24273;SDS011;12392;42.678;23.380;2022-11-20T02:18:42;2.47;;;1.10;;
24273;SDS011;12392;42.678;23.380;2022-11-20T02:24:00;2.60;;;1.13;;
24273;SDS011;12392;42.678;23.380;2022-11-20T02:26:30;2.95;;;1.55;;
24273;SDS011;12392;42.678;23.380;2022-11-20T02:28:58;5.32;;;1.48;;
24273;SDS011;12392;42.678;23.380;2022-11-20T02:31:24;3.88;;;1.65;;
24273;SDS011;12392;42.678;23.380;2022-11-20T02:33:56;3.70;;;1.33;;
24273;SDS011;12392;42.678;23.380;2022-11-20T02:36:23;3.55;;;1.30;;
24273;SDS011;12392;42.678;23.380;2022-11-20T02:38:51;5.05;;;1.30;;
24273;SDS011;12392;42.678;23.380;2022-11-20T02:41:17;1.35;;;1.00;;
24273;SDS011;12392;42.678;23.380;2022-11-20T02:43:43;2.70;;;1.20;;
24273;SDS011;12392;42.678;23.380;2022-11-20T02:46:08;3.97;;;1.10;;
24273;SDS011;12392;42.678;23.380;2022-11-20T02:48:34;1.80;;;0.95;;
24273;SDS011;12392;42.678;23.380;2022-11-20T02:51:00;2.25;;;0.90;;
24273;SDS011;12392;42.678;23.380;2022-11-20T02:53:26;3.30;;;1.10;;
24273;SDS011;12392;42.678;23.380;2022-11-20T02:55:51;3.03;;;0.60;;
24273;SDS011;12392;42.678;23.380;2022-11-20T02:58:17;0.95;;;0.40;;
24273;SDS011;12392;42.678;23.380;2022-11-20T03:00:44;0.55;;;0.22;;
24273;SDS011;12392;42.678;23.380;2022-11-20T03:03:09;1.90;;;0.30;;
24273;SDS011;12392;42.678;23.380;2022-11-20T03:05:35;1.30;;;0.47;;
24273;SDS011;12392;42.678;23.380;2022-11-20T03:08:00;0.63;;;0.47;;
24273;SDS011;12392;42.678;23.380;2022-11-20T03:10:26;2.08;;;0.35;;
24273;SDS011;12392;42.678;23.380;2022-11-20T03:12:53;1.02;;;0.40;;
24273;SDS011;12392;42.678;23.380;2022-11-20T03:15:20;1.67;;;0.57;;
24273;SDS011;12392;42.678;23.380;2022-11-20T03:17:46;2.42;;;0.50;;
24273;SDS011;12392;42.678;23.380;2022-11-20T03:20:12;0.63;;;0.40;;
24273;SDS011;12392;42.678;23.380;2022-11-20T03:22:37;1.13;;;0.32;;
24273;SDS011;12392;42.678;23.380;2022-11-20T03:25:03;0.52;;;0.30;;
24273;SDS011;12392;42.678;23.380;2022-11-20T03:27:33;0.73;;;0.40;;
24273;SDS011;12392;42.678;23.380;2022-11-20T03:29:59;1.17;;;0.50;;
24273;SDS011;12392;42.678;23.380;2022-11-20T03:32:25;1.88;;;0.40;;
24273;SDS011;12392;42.678;23.380;2022-11-20T03:34:51;0.40;;;0.40;;
24273;SDS011;12392;42.678;23.380;2022-11-20T03:37:16;2.38;;;0.57;;
24273;SDS011;12392;42.678;23.380;2022-11-20T03:39:42;1.52;;;0.38;;
24273;SDS011;12392;42.678;23.380;2022-11-20T03:42:08;2.67;;;0.38;;
24273;SDS011;12392;42.678;23.380;2022-11-20T03:44:54;0.95;;;0.57;;
24273;SDS011;12392;42.678;23.380;2022-11-20T03:47:20;0.63;;;0.30;;
24273;SDS011;12392;42.678;23.380;2022-11-20T03:49:45;1.52;;;0.50;;
24273;SDS011;12392;42.678;23.380;2022-11-20T03:52:11;0.95;;;0.40;;
24273;SDS011;12392;42.678;23.380;2022-11-20T03:54:37;0.60;;;0.30;;
24273;SDS011;12392;42.678;23.380;2022-11-20T03:57:02;1.45;;;0.70;;
24273;SDS011;12392;42.678;23.380;2022-11-20T03:59:28;0.77;;;0.38;;
24273;SDS011;12392;42.678;23.380;2022-11-20T04:01:54;1.20;;;0.30;;
24273;SDS011;12392;42.678;23.380;2022-11-20T04:04:19;2.63;;;0.82;;
24273;SDS011;12392;42.678;23.380;2022-11-20T04:06:45;2.53;;;0.70;;
24273;SDS011;12392;42.678;23.380;2022-11-20T04:09:11;0.32;;;0.30;;
24273;SDS011;12392;42.678;23.380;2022-11-20T04:11:37;0.40;;;0.40;;
24273;SDS011;12392;42.678;23.380;2022-11-20T04:14:04;4.55;;;0.88;;
24273;SDS011;12392;42.678;23.380;2022-11-20T04:16:33;2.10;;;0.35;;
24273;SDS011;12392;42.678;23.380;2022-11-20T04:19:00;0.60;;;0.40;;
24273;SDS011;12392;42.678;23.380;2022-11-20T04:21:26;0.60;;;0.40;;
24273;SDS011;12392;42.678;23.380;2022-11-20T04:23:53;1.15;;;0.40;;
24273;SDS011;12392;42.678;23.380;2022-11-20T04:26:19;1.13;;;0.38;;
24273;SDS011;12392;42.678;23.380;2022-11-20T04:28:45;4.47;;;0.40;;
24273;SDS011;12392;42.678;23.380;2022-11-20T04:31:12;1.00;;;0.30;;
24273;SDS011;12392;42.678;23.380;2022-11-20T04:33:39;0.30;;;0.20;;
24273;SDS011;12392;42.678;23.380;2022-11-20T04:36:06;0.35;;;0.25;;
24273;SDS011;12392;42.678;23.380;2022-11-20T04:38:34;0.52;;;0.30;;
24273;SDS011;12392;42.678;23.380;2022-11-20T04:41:01;0.50;;;0.40;;
24273;SDS011;12392;42.678;23.380;2022-11-20T04:43:28;2.05;;;0.30;;
24273;SDS011;12392;42.678;23.380;2022-11-20T04:45:54;2.60;;;0.40;;
24273;SDS011;12392;42.678;23.380;2022-11-20T04:48:21;0.45;;;0.40;;
24273;SDS011;12392;42.678;23.380;2022-11-20T04:50:47;1.60;;;0.40;;
24273;SDS011;12392;42.678;23.380;2022-11-20T04:53:12;0.65;;;0.30;;
24273;SDS011;12392;42.678;23.380;2022-11-20T04:55:38;1.55;;;0.30;;
24273;SDS011;12392;42.678;23.380;2022-11-20T04:58:04;0.50;;;0.35;;
24273;SDS011;12392;42.678;23.380;2022-11-20T05:00:29;1.95;;;0.52;;
24273;SDS011;12392;42.678;23.380;2022-11-20T05:02:55;1.77;;;0.40;;
24273;SDS011;12392;42.678;23.380;2022-11-20T05:05:21;0.50;;;0.40;;
24273;SDS011;12392;42.678;23.380;2022-11-20T05:07:46;2.47;;;0.50;;
24273;SDS011;12392;42.678;23.380;2022-11-20T05:10:12;1.08;;;0.70;;
24273;SDS011;12392;42.678;23.380;2022-11-20T05:12:38;2.47;;;0.60;;
24273;SDS011;12392;42.678;23.380;2022-11-20T05:15:03;3.92;;;0.28;;
24273;SDS011;12392;42.678;23.380;2022-11-20T05:17:29;1.25;;;0.43;;
24273;SDS011;12392;42.678;23.380;2022-11-20T05:19:55;2.65;;;0.68;;
24273;SDS011;12392;42.678;23.380;2022-11-20T05:22:21;3.78;;;0.55;;
24273;SDS011;12392;42.678;23.380;2022-11-20T05:24:47;1.48;;;0.50;;
24273;SDS011;12392;42.678;23.380;2022-11-20T05:27:12;2.17;;;0.30;;
24273;SDS011;12392;42.678;23.380;2022-11-20T05:29:38;0.88;;;0.50;;
24273;SDS011;12392;42.678;23.380;2022-11-20T05:32:04;1.15;;;0.50;;
24273;SDS011;12392;42.678;23.380;2022-11-20T05:34:32;2.97;;;0.40;;
24273;SDS011;12392;42.678;23.380;2022-11-20T05:36:58;1.00;;;0.60;;
24273;SDS011;12392;42.678;23.380;2022-11-20T05:39:23;1.73;;;0.50;;
24273;SDS011;12392;42.678;23.380;2022-11-20T05:41:49;0.80;;;0.40;;
24273;SDS011;12392;42.678;23.380;2022-11-20T05:44:34;1.23;;;0.40;;
24273;SDS011;12392;42.678;23.380;2022-11-20T05:47:00;1.80;;;0.35;;
24273;SDS011;12392;42.678;23.380;2022-11-20T05:49:26;2.60;;;0.45;;
24273;SDS011;12392;42.678;23.380;2022-11-20T05:51:51;1.55;;;0.52;;
24273;SDS011;12392;42.678;23.380;2022-11-20T05:54:17;6.13;;;0.40;;
24273;SDS011;12392;42.678;23.380;2022-11-20T05:56:43;3.55;;;0.55;;
24273;SDS011;12392;42.678;23.380;2022-11-20T05:59:08;0.65;;;0.43;;
24273;SDS011;12392;42.678;23.380;2022-11-20T06:01:34;0.50;;;0.50;;
24273;SDS011;12392;42.678;23.380;2022-11-20T06:04:01;1.85;;;0.60;;
24273;SDS011;12392;42.678;23.380;2022-11-20T06:06:27;1.00;;;0.38;;
24273;SDS011;12392;42.678;23.380;2022-11-20T06:08:52;1.90;;;0.47;;
24273;SDS011;12392;42.678;23.380;2022-11-20T06:11:19;2.97;;;0.40;;
24273;SDS011;12392;42.678;23.380;2022-11-20T06:13:45;0.90;;;0.38;;
24273;SDS011;12392;42.678;23.380;2022-11-20T06:16:11;4.28;;;0.60;;
24273;SDS011;12392;42.678;23.380;2022-11-20T06:18:38;7.80;;;0.55;;
24273;SDS011;12392;42.678;23.380;2022-11-20T06:21:08;5.68;;;0.52;;
24273;SDS011;12392;42.678;23.380;2022-11-20T06:23:35;1.77;;;0.52;;
24273;SDS011;12392;42.678;23.380;2022-11-20T06:26:02;3.25;;;0.43;;
24273;SDS011;12392;42.678;23.380;2022-11-20T06:28:29;1.73;;;0.40;;
24273;SDS011;12392;42.678;23.380;2022-11-20T06:30:55;1.92;;;0.50;;
24273;SDS011;12392;42.678;23.380;2022-11-20T06:33:21;1.30;;;0.40;;
24273;SDS011;12392;42.678;23.380;2022-11-20T06:35:47;3.75;;;0.52;;
24273;SDS011;12392;42.678;23.380;2022-11-20T06:38:13;0.52;;;0.28;;
24273;SDS011;12392;42.678;23.380;2022-11-20T06:40:42;5.57;;;0.50;;
24273;SDS011;12392;42.678;23.380;2022-11-20T06:43:11;1.80;;;0.80;;
24273;SDS011;12392;42.678;23.380;2022-11-20T06:45:36;1.20;;;0.77;;
24273;SDS011;12392;42.678;23.380;2022-11-20T06:48:02;0.35;;;0.30;;
24273;SDS011;12392;42.678;23.380;2022-11-20T06:50:28;0.35;;;0.35;;
24273;SDS011;12392;42.678;23.380;2022-11-20T06:52:54;1.35;;;0.63;;
24273;SDS011;12392;42.678;23.380;2022-11-20T06:55:20;5.18;;;0.60;;
24273;SDS011;12392;42.678;23.380;2022-11-20T06:57:46;1.38;;;0.60;;
24273;SDS011;12392;42.678;23.380;2022-11-20T07:00:11;1.95;;;0.40;;
24273;SDS011;12392;42.678;23.380;2022-11-20T07:02:38;2.33;;;0.40;;
24273;SDS011;12392;42.678;23.380;2022-11-20T07:05:03;2.78;;;0.60;;
24273;SDS011;12392;42.678;23.380;2022-11-20T07:07:29;4.85;;;0.32;;
24273;SDS011;12392;42.678;23.380;2022-11-20T07:09:55;1.05;;;0.40;;
24273;SDS011;12392;42.678;23.380;2022-11-20T07:12:20;2.85;;;0.55;;
24273;SDS011;12392;42.678;23.380;2022-11-20T07:14:46;2.15;;;0.45;;
24273;SDS011;12392;42.678;23.380;2022-11-20T07:17:12;0.90;;;0.30;;
24273;SDS011;12392;42.678;23.380;2022-11-20T07:19:37;2.42;;;0.43;;
24273;SDS011;12392;42.678;23.380;2022-11-20T07:22:03;4.25;;;0.50;;
24273;SDS011;12392;42.678;23.380;2022-11-20T07:24:29;0.30;;;0.30;;
24273;SDS011;12392;42.678;23.380;2022-11-20T07:26:55;1.27;;;0.45;;
24273;SDS011;12392;42.678;23.380;2022-11-20T07:29:20;0.70;;;0.38;;
24273;SDS011;12392;42.678;23.380;2022-11-20T07:31:46;0.88;;;0.30;;
24273;SDS011;12392;42.678;23.380;2022-11-20T07:34:12;2.95;;;0.30;;
24273;SDS011;12392;42.678;23.380;2022-11-20T07:36:37;0.20;;;0.20;;
24273;SDS011;12392;42.678;23.380;2022-11-20T07:39:03;0.35;;;0.28;;
24273;SDS011;12392;42.678;23.380;2022-11-20T07:41:29;1.77;;;0.30;;
24273;SDS011;12392;42.678;23.380;2022-11-20T07:43:55;2.05;;;0.32;;
24273;SDS011;12392;42.678;23.380;2022-11-20T07:46:20;2.92;;;0.80;;
24273;SDS011;12392;42.678;23.380;2022-11-20T07:48:46;1.95;;;0.77;;
24273;SDS011;12392;42.678;23.380;2022-11-20T07:51:12;4.57;;;0.60;;
24273;SDS011;12392;42.678;23.380;2022-11-20T07:53:38;4.38;;;0.60;;
24273;SDS011;12392;42.678;23.380;2022-11-20T07:56:04;1.08;;;0.40;;
24273;SDS011;12392;42.678;23.380;2022-11-20T07:58:30;2.30;;;0.40;;
24273;SDS011;12392;42.678;23.380;2022-11-20T08:00:58;0.65;;;0.40;;
24273;SDS011;12392;42.678;23.380;2022-11-20T08:03:27;1.55;;;0.60;;
24273;SDS011;12392;42.678;23.380;2022-11-20T08:05:53;3.00;;;0.88;;
24273;SDS011;12392;42.678;23.380;2022-11-20T08:08:19;3.53;;;0.60;;
24273;SDS011;12392;42.678;23.380;2022-11-20T08:10:46;1.90;;;0.60;;
24273;SDS011;12392;42.678;23.380;2022-11-20T08:13:12;6.40;;;1.65;;
24273;SDS011;12392;42.678;23.380;2022-11-20T08:15:56;1.65;;;0.65;;
24273;SDS011;12392;42.678;23.380;2022-11-20T08:18:21;0.40;;;0.32;;
24273;SDS011;12392;42.678;23.380;2022-11-20T08:20:47;4.85;;;0.65;;
24273;SDS011;12392;42.678;23.380;2022-11-20T08:23:13;3.33;;;0.70;;
24273;SDS011;12392;42.678;23.380;2022-11-20T08:25:38;4.35;;;0.77;;
24273;SDS011;12392;42.678;23.380;2022-11-20T08:28:05;0.85;;;0.40;;
24273;SDS011;12392;42.678;23.380;2022-11-20T08:30:32;1.90;;;0.68;;
24273;SDS011;12392;42.678;23.380;2022-11-20T08:33:08;3.40;;;0.60;;
24273;SDS011;12392;42.678;23.380;2022-11-20T08:35:34;3.83;;;0.98;;
24273;SDS011;12392;42.678;23.380;2022-11-20T08:38:01;0.75;;;0.50;;
24273;SDS011;12392;42.678;23.380;2022-11-20T08:40:28;6.35;;;0.80;;
24273;SDS011;12392;42.678;23.380;2022-11-20T08:42:53;2.00;;;0.90;;
24273;SDS011;12392;42.678;23.380;2022-11-20T08:45:19;3.10;;;0.47;;
24273;SDS011;12392;42.678;23.380;2022-11-20T08:47:45;3.50;;;0.90;;
24273;SDS011;12392;42.678;23.380;2022-11-20T08:50:12;1.80;;;0.75;;
24273;SDS011;12392;42.678;23.380;2022-11-20T08:52:38;1.02;;;0.65;;
24273;SDS011;12392;42.678;23.380;2022-11-20T08:55:04;4.65;;;0.90;;
24273;SDS011;12392;42.678;23.380;2022-11-20T08:57:34;1.98;;;0.60;;
24273;SDS011;12392;42.678;23.380;2022-11-20T09:00:00;2.63;;;1.05;;
24273;SDS011;12392;42.678;23.380;2022-11-20T09:02:26;4.50;;;0.80;;
24273;SDS011;12392;42.678;23.380;2022-11-20T09:04:52;2.78;;;1.63;;
24273;SDS011;12392;42.678;23.380;2022-11-20T09:07:21;6.05;;;1.52;;
24273;SDS011;12392;42.678;23.380;2022-11-20T09:09:47;6.97;;;1.38;;
24273;SDS011;12392;42.678;23.380;2022-11-20T09:12:13;5.07;;;1.70;;
24273;SDS011;12392;42.678;23.380;2022-11-20T09:14:38;2.15;;;1.02;;
24273;SDS011;12392;42.678;23.380;2022-11-20T09:17:04;1.75;;;0.93;;
24273;SDS011;12392;42.678;23.380;2022-11-20T09:19:30;2.38;;;1.30;;
24273;SDS011;12392;42.678;23.380;2022-11-20T09:21:55;3.97;;;1.60;;
24273;SDS011;12392;42.678;23.380;2022-11-20T09:24:21;3.30;;;1.10;;
24273;SDS011;12392;42.678;23.380;2022-11-20T09:26:47;2.33;;;0.88;;
24273;SDS011;12392;42.678;23.380;2022-11-20T09:29:12;1.75;;;0.50;;
24273;SDS011;12392;42.678;23.380;2022-11-20T09:31:38;1.70;;;0.73;;
24273;SDS011;12392;42.678;23.380;2022-11-20T09:34:04;9.02;;;1.02;;
24273;SDS011;12392;42.678;23.380;2022-11-20T09:36:30;3.35;;;1.00;;
24273;SDS011;12392;42.678;23.380;2022-11-20T09:38:55;2.40;;;0.73;;
24273;SDS011;12392;42.678;23.380;2022-11-20T09:47:00;1.45;;;0.73;;
24273;SDS011;12392;42.678;23.380;2022-11-20T09:53:07;1.35;;;1.23;;
24273;SDS011;12392;42.678;23.380;2022-11-20T09:55:38;1.80;;;1.15;;
24273;SDS011;12392;42.678;23.380;2022-11-20T09:58:05;1.45;;;1.02;;
24273;SDS011;12392;42.678;23.380;2022-11-20T10:00:32;5.38;;;1.55;;
24273;SDS011;12392;42.678;23.380;2022-11-20T10:03:01;2.10;;;0.73;;
24273;SDS011;12392;42.678;23.380;2022-11-20T10:13:17;3.90;;;1.10;;
24273;SDS011;12392;42.678;23.380;2022-11-20T10:29:54;6.47;;;2.92;;
24273;SDS011;12392;42.678;23.380;2022-11-20T10:32:27;4.43;;;2.53;;
24273;SDS011;12392;42.678;23.380;2022-11-20T10:38:02;7.60;;;3.25;;
24273;SDS011;12392;42.678;23.380;2022-11-20T10:40:47;8.07;;;2.95;;
24273;SDS011;12392;42.678;23.380;2022-11-20T10:43:40;9.85;;;4.03;;
24273;SDS011;12392;42.678;23.380;2022-11-20T10:46:10;6.90;;;3.20;;
24273;SDS011;12392;42.678;23.380;2022-11-20T10:48:44;9.68;;;2.72;;
24273;SDS011;12392;42.678;23.380;2022-11-20T10:56:50;5.32;;;3.03;;
24273;SDS011;12392;42.678;23.380;2022-11-20T11:01:53;5.80;;;1.98;;
24273;SDS011;12392;42.678;23.380;2022-11-20T11:06:54;6.13;;;2.55;;
24273;SDS011;12392;42.678;23.380;2022-11-20T11:09:28;10.45;;;3.90;;
24273;SDS011;12392;42.678;23.380;2022-11-20T11:11:59;12.30;;;3.50;;
24273;SDS011;12392;42.678;23.380;2022-11-20T11:14:24;6.57;;;2.97;;
24273;SDS011;12392;42.678;23.380;2022-11-20T11:16:54;13.38;;;4.68;;
24273;SDS011;12392;42.678;23.380;2022-11-20T11:19:21;7.93;;;3.65;;
24273;SDS011;12392;42.678;23.380;2022-11-20T11:21:47;4.43;;;2.25;;
24273;SDS011;12392;42.678;23.380;2022-11-20T11:24:25;6.65;;;1.75;;
24273;SDS011;12392;42.678;23.380;2022-11-20T11:29:32;1.92;;;0.65;;
24273;SDS011;12392;42.678;23.380;2022-11-20T11:34:43;0.20;;;0.20;;
24273;SDS011;12392;42.678;23.380;2022-11-20T11:37:11;4.57;;;0.40;;
24273;SDS011;12392;42.678;23.380;2022-11-20T11:39:41;1.65;;;0.30;;
24273;SDS011;12392;42.678;23.380;2022-11-20T11:42:07;2.13;;;0.20;;
24273;SDS011;12392;42.678;23.380;2022-11-20T11:44:38;1.17;;;0.20;;
24273;SDS011;12392;42.678;23.380;2022-11-20T11:56:03;1.25;;;0.40;;
24273;SDS011;12392;42.678;23.380;2022-11-20T12:06:30;0.40;;;0.30;;
24273;SDS011;12392;42.678;23.380;2022-11-20T12:09:01;3.03;;;0.75;;
24273;SDS011;12392;42.678;23.380;2022-11-20T12:11:40;0.90;;;0.57;;
24273;SDS011;12392;42.678;23.380;2022-11-20T12:14:37;1.05;;;0.32;;
24273;SDS011;12392;42.678;23.380;2022-11-20T12:17:04;2.40;;;0.55;;
24273;SDS011;12392;42.678;23.380;2022-11-20T12:19:30;1.20;;;0.70;;
24273;SDS011;12392;42.678;23.380;2022-11-20T12:22:03;1.20;;;0.22;;
24273;SDS011;12392;42.678;23.380;2022-11-20T12:33:17;0.65;;;0.32;;
24273;SDS011;12392;42.678;23.380;2022-11-20T13:05:25;18.27;;;8.48;;
24273;SDS011;12392;42.678;23.380;2022-11-20T13:07:53;28.30;;;15.02;;
24273;SDS011;12392;42.678;23.380;2022-11-20T13:10:21;35.25;;;15.73;;
24273;SDS011;12392;42.678;23.380;2022-11-20T13:12:56;31.17;;;15.15;;
24273;SDS011;12392;42.678;23.380;2022-11-20T13:18:25;5.18;;;2.05;;
24273;SDS011;12392;42.678;23.380;2022-11-20T13:20:51;12.85;;;5.50;;
24273;SDS011;12392;42.678;23.380;2022-11-20T13:23:24;8.43;;;3.00;;
24273;SDS011;12392;42.678;23.380;2022-11-20T13:26:03;7.60;;;3.80;;
24273;SDS011;12392;42.678;23.380;2022-11-20T13:28:30;8.18;;;3.92;;
24273;SDS011;12392;42.678;23.380;2022-11-20T13:30:57;7.07;;;2.75;;
24273;SDS011;12392;42.678;23.380;2022-11-20T13:33:25;6.28;;;2.00;;
24273;SDS011;12392;42.678;23.380;2022-11-20T13:35:55;11.35;;;3.33;;
24273;SDS011;12392;42.678;23.380;2022-11-20T13:38:23;6.03;;;1.70;;
24273;SDS011;12392;42.678;23.380;2022-11-20T13:43:23;4.90;;;1.70;;
24273;SDS011;12392;42.678;23.380;2022-11-20T13:46:02;2.75;;;1.05;;
24273;SDS011;12392;42.678;23.380;2022-11-20T13:48:30;4.00;;;1.48;;
24273;SDS011;12392;42.678;23.380;2022-11-20T14:02:16;12.15;;;5.75;;
24273;SDS011;12392;42.678;23.380;2022-11-20T14:04:47;12.32;;;5.95;;
24273;SDS011;12392;42.678;23.380;2022-11-20T14:07:15;9.40;;;3.75;;
24273;SDS011;12392;42.678;23.380;2022-11-20T14:09:52;6.35;;;3.83;;
24273;SDS011;12392;42.678;23.380;2022-11-20T14:12:20;7.18;;;3.22;;
24273;SDS011;12392;42.678;23.380;2022-11-20T14:14:48;10.93;;;4.75;;
24273;SDS011;12392;42.678;23.380;2022-11-20T14:17:23;10.85;;;5.53;;
24273;SDS011;12392;42.678;23.380;2022-11-20T14:19:56;12.52;;;4.60;;
24273;SDS011;12392;42.678;23.380;2022-11-20T14:22:25;12.60;;;4.70;;
24273;SDS011;12392;42.678;23.380;2022-11-20T14:25:02;8.13;;;5.03;;
24273;SDS011;12392;42.678;23.380;2022-11-20T14:27:38;10.15;;;4.65;;
24273;SDS011;12392;42.678;23.380;2022-11-20T14:30:11;8.60;;;4.25;;
24273;SDS011;12392;42.678;23.380;2022-11-20T14:32:39;12.30;;;4.28;;
24273;SDS011;12392;42.678;23.380;2022-11-20T14:35:10;7.50;;;3.78;;
24273;SDS011;12392;42.678;23.380;2022-11-20T14:37:59;8.20;;;4.28;;
24273;SDS011;12392;42.678;23.380;2022-11-20T14:40:35;11.43;;;4.35;;
24273;SDS011;12392;42.678;23.380;2022-11-20T14:43:04;7.60;;;3.80;;
24273;SDS011;12392;42.678;23.380;2022-11-20T14:46:01;8.38;;;3.55;;
24273;SDS011;12392;42.678;23.380;2022-11-20T14:48:33;7.07;;;3.30;;
24273;SDS011;12392;42.678;23.380;2022-11-20T14:51:11;6.43;;;3.22;;
24273;SDS011;12392;42.678;23.380;2022-11-20T14:53:49;6.80;;;3.13;;
24273;SDS011;12392;42.678;23.380;2022-11-20T14:56:20;5.60;;;2.95;;
24273;SDS011;12392;42.678;23.380;2022-11-20T14:58:56;5.45;;;3.20;;
24273;SDS011;12392;42.678;23.380;2022-11-20T15:01:26;9.60;;;3.63;;
24273;SDS011;12392;42.678;23.380;2022-11-20T15:03:59;6.90;;;3.75;;
24273;SDS011;12392;42.678;23.380;2022-11-20T15:06:25;8.43;;;3.90;;
24273;SDS011;12392;42.678;23.380;2022-11-20T15:08:52;8.35;;;4.70;;
24273;SDS011;12392;42.678;23.380;2022-11-20T15:11:19;9.25;;;4.10;;
24273;SDS011;12392;42.678;23.380;2022-11-20T15:13:46;11.93;;;4.43;;
24273;SDS011;12392;42.678;23.380;2022-11-20T15:16:18;11.13;;;4.03;;
24273;SDS011;12392;42.678;23.380;2022-11-20T15:18:45;7.82;;;3.92;;
24273;SDS011;12392;42.678;23.380;2022-11-20T15:21:12;12.40;;;4.65;;
24273;SDS011;12392;42.678;23.380;2022-11-20T15:23:39;8.95;;;4.18;;
24273;SDS011;12392;42.678;23.380;2022-11-20T15:26:05;11.77;;;5.40;;
24273;SDS011;12392;42.678;23.380;2022-11-20T15:28:33;8.07;;;3.88;;
24273;SDS011;12392;42.678;23.380;2022-11-20T15:33:33;4.35;;;2.00;;
24273;SDS011;12392;42.678;23.380;2022-11-20T15:35:59;2.55;;;1.60;;
24273;SDS011;12392;42.678;23.380;2022-11-20T15:38:25;5.82;;;1.95;;
24273;SDS011;12392;42.678;23.380;2022-11-20T15:40:51;3.20;;;1.80;;
24273;SDS011;12392;42.678;23.380;2022-11-20T15:43:16;3.20;;;1.52;;
24273;SDS011;12392;42.678;23.380;2022-11-20T15:45:43;7.22;;;1.58;;
24273;SDS011;12392;42.678;23.380;2022-11-20T15:48:15;7.45;;;1.60;;
24273;SDS011;12392;42.678;23.380;2022-11-20T15:50:46;3.65;;;2.25;;
24273;SDS011;12392;42.678;23.380;2022-11-20T15:53:33;4.30;;;2.00;;
24273;SDS011;12392;42.678;23.380;2022-11-20T15:55:59;3.22;;;1.75;;
24273;SDS011;12392;42.678;23.380;2022-11-20T15:58:25;2.35;;;1.02;;
24273;SDS011;12392;42.678;23.380;2022-11-20T16:00:51;1.00;;;0.80;;
24273;SDS011;12392;42.678;23.380;2022-11-20T16:03:17;2.72;;;1.15;;
24273;SDS011;12392;42.678;23.380;2022-11-20T16:05:43;2.55;;;1.33;;
24273;SDS011;12392;42.678;23.380;2022-11-20T16:08:09;1.98;;;0.88;;
24273;SDS011;12392;42.678;23.380;2022-11-20T16:10:35;2.50;;;1.15;;
24273;SDS011;12392;42.678;23.380;2022-11-20T16:13:01;3.78;;;1.60;;
24273;SDS011;12392;42.678;23.380;2022-11-20T16:15:55;1.98;;;0.90;;
24273;SDS011;12392;42.678;23.380;2022-11-20T16:18:22;2.95;;;1.25;;
24273;SDS011;12392;42.678;23.380;2022-11-20T16:20:51;2.45;;;1.42;;
24273;SDS011;12392;42.678;23.380;2022-11-20T16:23:18;4.00;;;1.80;;
24273;SDS011;12392;42.678;23.380;2022-11-20T16:25:45;3.53;;;2.65;;
24273;SDS011;12392;42.678;23.380;2022-11-20T16:28:11;4.50;;;2.30;;
24273;SDS011;12392;42.678;23.380;2022-11-20T16:30:38;5.68;;;3.03;;
24273;SDS011;12392;42.678;23.380;2022-11-20T16:33:04;3.47;;;2.15;;
24273;SDS011;12392;42.678;23.380;2022-11-20T16:35:33;5.82;;;2.53;;
24273;SDS011;12392;42.678;23.380;2022-11-20T16:37:59;5.20;;;2.33;;
24273;SDS011;12392;42.678;23.380;2022-11-20T16:40:24;4.78;;;2.45;;
24273;SDS011;12392;42.678;23.380;2022-11-20T16:42:50;3.88;;;2.03;;
24273;SDS011;12392;42.678;23.380;2022-11-20T16:45:17;5.45;;;1.77;;
24273;SDS011;12392;42.678;23.380;2022-11-20T16:47:43;4.07;;;1.95;;
24273;SDS011;12392;42.678;23.380;2022-11-20T16:50:08;5.43;;;2.78;;
24273;SDS011;12392;42.678;23.380;2022-11-20T16:52:34;6.82;;;2.80;;